createdAt,value
2023-06-15T00:01:08.070Z,75462.56
2023-06-15T00:03:37.482Z,75466.63
2023-06-15T00:06:05.308Z,75464.59
2023-06-15T00:08:33.081Z,75470.72
2023-06-15T00:11:01.091Z,75478.88
2023-06-15T00:13:29.095Z,75491.09
2023-06-15T00:15:56.948Z,75503.34
2023-06-15T00:18:24.977Z,75503.34
2023-06-15T00:20:54.920Z,75507.41
2023-06-15T00:23:28.343Z,75503.34
2023-06-15T00:25:57.824Z,75505.38
2023-06-15T00:28:25.746Z,75507.41
2023-06-15T00:30:53.533Z,75519.63
2023-06-15T00:33:21.625Z,75527.78
2023-06-15T00:35:49.618Z,75535.94
2023-06-15T00:38:18.893Z,75550.22
2023-06-15T00:40:47.633Z,75556.34
2023-06-15T00:43:15.581Z,75562.44
2023-06-15T00:45:43.401Z,75562.44
2023-06-15T00:48:11.546Z,75560.41
2023-06-15T00:50:40.263Z,75548.19
2023-06-15T00:53:08.562Z,75560.41
2023-06-15T00:55:39.847Z,75568.56
2023-06-15T00:58:08.388Z,75582.84
2023-06-15T01:00:37.876Z,75584.88
2023-06-15T01:03:07.736Z,75588.94
2023-06-15T01:05:36.935Z,75591.00
2023-06-15T01:08:06.589Z,75595.06
2023-06-15T01:10:36.165Z,75588.94
2023-06-15T01:13:08.764Z,75586.91
2023-06-15T01:15:36.640Z,75597.09
2023-06-15T01:18:06.543Z,75597.09
2023-06-15T01:20:40.234Z,75613.41
2023-06-15T01:23:23.704Z,75633.78
2023-06-15T01:26:09.440Z,75629.72
2023-06-15T01:28:41.869Z,75629.72
2023-06-15T01:31:11.225Z,75635.84
2023-06-15T01:33:46.661Z,75652.13
2023-06-15T01:36:14.521Z,75658.25
2023-06-15T01:38:43.713Z,75658.25
2023-06-15T01:41:13.828Z,75648.06
2023-06-15T01:43:42.421Z,75646.03
2023-06-15T01:46:11.481Z,75646.03
2023-06-15T01:48:39.567Z,75650.09
2023-06-15T01:51:07.659Z,75646.03
2023-06-15T01:53:37.037Z,75654.19
2023-06-15T01:56:05.601Z,75670.50
2023-06-15T01:58:34.859Z,75678.63
2023-06-15T02:01:03.106Z,75682.72
2023-06-15T02:03:32.435Z,75690.88
2023-06-15T02:06:00.208Z,75697.00
2023-06-15T02:08:28.233Z,75701.06
2023-06-15T02:10:56.078Z,75707.19
2023-06-15T02:13:23.828Z,75715.34
2023-06-15T02:15:53.159Z,75721.44
2023-06-15T02:18:21.975Z,75733.69
2023-06-15T02:20:51.175Z,75741.84
2023-06-15T02:23:20.931Z,75741.84
2023-06-15T02:25:48.898Z,75731.66
2023-06-15T02:28:17.058Z,75727.56
2023-06-15T02:30:45.442Z,75719.41
2023-06-15T02:33:14.547Z,75719.41
2023-06-15T02:35:42.307Z,75723.50
2023-06-15T02:38:11.230Z,75731.66
2023-06-15T02:40:39.008Z,75735.72
2023-06-15T02:43:06.797Z,75750.00
2023-06-15T02:45:34.814Z,75762.22
2023-06-15T02:48:02.620Z,75758.16
2023-06-15T02:50:31.788Z,75756.09
2023-06-15T02:52:59.794Z,75758.16
2023-06-15T02:55:27.573Z,75752.03
2023-06-15T02:57:55.341Z,75756.09
2023-06-15T03:00:24.265Z,75752.03
2023-06-15T03:02:53.511Z,75752.03
2023-06-15T03:05:21.463Z,75752.03
2023-06-15T03:07:52.050Z,75752.03
2023-06-15T03:10:19.854Z,75747.94
2023-06-15T03:12:47.688Z,75756.09
2023-06-15T03:15:16.227Z,75754.06
2023-06-15T03:17:44.263Z,75758.16
2023-06-15T03:20:12.992Z,75758.16
2023-06-15T03:22:41.826Z,75760.19
2023-06-15T03:25:12.537Z,75760.19
2023-06-15T03:27:42.004Z,75758.16
2023-06-15T03:30:12.660Z,75752.03
2023-06-15T03:32:41.002Z,75752.03
2023-06-15T03:35:09.879Z,75752.03
2023-06-15T03:37:37.718Z,75754.06
2023-06-15T03:40:07.007Z,75752.03
2023-06-15T03:42:36.386Z,75741.84
2023-06-15T03:45:04.357Z,75729.59
2023-06-15T03:47:33.301Z,75723.50
2023-06-15T03:50:01.278Z,75723.50
2023-06-15T03:52:29.073Z,75721.44
2023-06-15T03:54:57.057Z,75719.41
2023-06-15T03:57:24.827Z,75723.50
2023-06-15T03:59:54.049Z,75717.38
2023-06-15T04:02:22.063Z,75719.41
2023-06-15T04:04:49.855Z,75717.38
2023-06-15T04:07:18.250Z,75719.41
2023-06-15T04:09:46.281Z,75715.34
2023-06-15T04:12:14.082Z,75703.09
2023-06-15T04:14:43.437Z,75688.84
2023-06-15T04:17:12.904Z,75676.59
2023-06-15T04:19:40.972Z,75662.34
2023-06-15T04:22:08.752Z,75654.19
2023-06-15T04:24:36.914Z,75641.94
2023-06-15T04:27:06.498Z,75629.72
2023-06-15T04:29:34.325Z,75617.50
2023-06-15T04:32:04.595Z,75605.25
2023-06-15T04:34:34.751Z,75597.09
2023-06-15T04:37:02.764Z,75582.84
2023-06-15T04:39:30.523Z,75574.69
2023-06-15T04:41:58.862Z,75564.47
2023-06-15T04:44:26.953Z,75546.13
2023-06-15T04:46:55.935Z,75540.03
2023-06-15T04:49:23.945Z,75531.88
2023-06-15T04:51:53.515Z,75523.72
2023-06-15T04:54:21.311Z,75513.53
2023-06-15T04:56:49.158Z,75503.34
2023-06-15T04:59:17.168Z,75491.09
2023-06-15T05:01:44.934Z,75482.94
2023-06-15T05:04:12.685Z,75478.88
2023-06-15T05:06:40.712Z,75468.69
2023-06-15T05:09:09.806Z,75462.56
2023-06-15T05:11:37.613Z,75438.09
2023-06-15T05:14:06.366Z,75419.75
2023-06-15T05:16:34.374Z,75405.50
2023-06-15T05:19:02.183Z,75401.41
2023-06-15T05:21:30.195Z,75381.03
2023-06-15T05:23:58.011Z,75381.03
2023-06-15T05:26:30.157Z,75372.88
2023-06-15T05:28:58.822Z,75372.88
2023-06-15T05:31:26.644Z,75372.88
2023-06-15T05:33:55.195Z,75360.66
2023-06-15T05:36:34.473Z,75352.50
2023-06-15T05:39:12.890Z,75330.06
2023-06-15T05:41:43.554Z,75311.72
2023-06-15T05:44:11.631Z,75301.53
2023-06-15T05:46:39.447Z,75277.06
2023-06-15T05:49:07.448Z,75258.72
2023-06-15T05:51:35.552Z,75258.72
2023-06-15T05:54:03.455Z,75262.81
2023-06-15T05:56:32.226Z,75242.41
2023-06-15T05:59:01.346Z,75236.31
2023-06-15T06:01:29.134Z,75224.06
2023-06-15T06:03:57.155Z,75217.97
2023-06-15T06:06:25.023Z,75220.00
2023-06-15T06:08:52.814Z,75213.88
2023-06-15T06:11:20.826Z,75213.88
2023-06-15T06:13:48.593Z,75215.91
2023-06-15T06:16:17.807Z,75215.91
2023-06-15T06:18:45.869Z,75213.88
2023-06-15T06:21:13.727Z,75209.81
2023-06-15T06:23:41.587Z,75199.63
2023-06-15T06:26:09.741Z,75189.44
2023-06-15T06:28:37.528Z,75187.38
2023-06-15T06:31:05.645Z,75193.50
2023-06-15T06:33:38.268Z,75177.19
2023-06-15T06:36:09.444Z,75175.16
2023-06-15T06:38:46.348Z,75146.63
2023-06-15T06:41:25.706Z,75142.53
2023-06-15T06:43:54.259Z,75136.44
2023-06-15T06:46:23.483Z,75126.25
2023-06-15T06:49:17.331Z,75132.34
2023-06-15T06:51:45.428Z,75148.66
2023-06-15T06:54:13.172Z,75140.50
2023-06-15T06:56:40.943Z,75120.13
2023-06-15T06:59:08.967Z,75107.91
2023-06-15T07:01:36.764Z,75105.84
2023-06-15T07:04:04.686Z,75099.75
2023-06-15T07:06:34.793Z,75081.41
2023-06-15T07:09:02.548Z,75085.47
2023-06-15T07:11:30.420Z,75071.22
2023-06-15T07:13:59.916Z,75050.81
2023-06-15T07:16:27.674Z,75042.69
2023-06-15T07:18:56.751Z,75022.28
2023-06-15T07:21:24.881Z,75012.09
2023-06-15T07:23:54.658Z,75016.19
2023-06-15T07:26:23.170Z,75006.00
2023-06-15T07:28:51.223Z,74981.53
2023-06-15T07:31:19.246Z,74959.13
2023-06-15T07:33:47.053Z,74940.78
2023-06-15T07:36:15.347Z,74944.84
2023-06-15T07:38:43.232Z,74936.69
2023-06-15T07:41:12.385Z,74910.19
2023-06-15T07:43:40.728Z,74924.47
2023-06-15T07:46:08.636Z,74908.16
2023-06-15T07:48:36.422Z,74900.00
2023-06-15T07:51:04.613Z,74902.03
2023-06-15T07:53:32.464Z,74900.00
2023-06-15T07:56:00.304Z,74881.66
2023-06-15T07:58:29.627Z,74889.81
2023-06-15T08:00:57.446Z,74867.41
2023-06-15T08:03:25.409Z,74847.00
2023-06-15T08:05:53.469Z,74838.88
2023-06-15T08:08:22.228Z,74798.09
2023-06-15T08:10:49.989Z,74800.16
2023-06-15T08:13:20.019Z,74798.09
2023-06-15T08:15:49.352Z,74789.94
2023-06-15T08:18:17.414Z,74773.66
2023-06-15T08:20:45.624Z,74745.13
2023-06-15T08:23:14.111Z,74730.84
2023-06-15T08:25:42.518Z,74712.50
2023-06-15T08:28:10.573Z,74671.75
2023-06-15T08:30:38.349Z,74637.09
2023-06-15T08:33:07.549Z,74631.00
2023-06-15T08:35:36.088Z,74663.59
2023-06-15T08:38:04.309Z,74639.13
2023-06-15T08:40:32.110Z,74606.53
2023-06-15T08:43:01.883Z,74635.06
2023-06-15T08:45:39.248Z,74645.25
2023-06-15T08:48:10.255Z,74606.53
2023-06-15T08:50:41.095Z,74631.00
2023-06-15T08:53:10.855Z,74659.53
2023-06-15T08:55:39.515Z,74614.69
2023-06-15T08:58:10.484Z,74592.28
2023-06-15T09:00:39.045Z,74573.94
2023-06-15T09:03:10.486Z,74573.94
2023-06-15T09:05:38.558Z,74553.56
2023-06-15T09:08:07.558Z,74520.94
2023-06-15T09:10:38.444Z,74561.69
2023-06-15T09:13:06.951Z,74549.47
2023-06-15T09:15:34.702Z,74553.56
2023-06-15T09:18:03.978Z,74535.22
2023-06-15T09:20:39.188Z,74516.88
2023-06-15T09:23:13.003Z,74461.84
2023-06-15T09:25:42.872Z,74467.97
2023-06-15T09:28:10.926Z,74431.28
2023-06-15T09:30:40.046Z,74412.94
2023-06-15T09:33:16.955Z,74414.97
2023-06-15T09:35:59.861Z,74406.81
2023-06-15T09:38:30.917Z,74368.09
2023-06-15T09:41:03.833Z,74386.44
2023-06-15T09:43:35.375Z,74372.19
2023-06-15T09:46:04.240Z,74302.91
2023-06-15T09:48:32.575Z,74337.53
2023-06-15T09:51:03.648Z,74284.56
2023-06-15T09:53:32.871Z,74286.59
2023-06-15T09:56:01.816Z,74288.63
2023-06-15T09:58:29.654Z,74311.06
2023-06-15T10:00:58.810Z,74292.72
2023-06-15T10:03:27.858Z,74245.84
2023-06-15T10:06:00.531Z,74196.94
2023-06-15T10:08:35.170Z,74178.59
2023-06-15T10:11:03.219Z,74178.59
2023-06-15T10:13:37.492Z,74150.06
2023-06-15T10:16:06.683Z,74133.78
2023-06-15T10:18:35.237Z,74150.06
2023-06-15T10:21:06.052Z,74121.56
2023-06-15T10:23:41.760Z,74090.97
2023-06-15T10:26:11.043Z,74031.91
2023-06-15T10:28:46.129Z,74109.31
2023-06-15T10:31:18.961Z,74097.09
2023-06-15T10:33:52.111Z,74046.16
2023-06-15T10:36:24.900Z,74054.31
2023-06-15T10:39:06.910Z,73983.00
2023-06-15T10:41:35.910Z,74015.59
2023-06-15T10:44:06.221Z,74015.59
2023-06-15T10:46:35.735Z,74011.53
2023-06-15T10:49:05.370Z,74088.94
2023-06-15T10:51:36.551Z,74101.16
2023-06-15T10:54:06.873Z,74194.91
2023-06-15T10:56:34.766Z,74227.50
2023-06-15T10:59:05.543Z,74239.72
2023-06-15T11:01:34.200Z,74219.34
2023-06-15T11:04:03.288Z,74158.22
2023-06-15T11:06:37.102Z,74133.78
2023-06-15T11:09:08.774Z,74148.03
2023-06-15T11:11:39.353Z,74213.25
2023-06-15T11:14:08.259Z,74264.19
2023-06-15T11:16:37.096Z,74282.53
2023-06-15T11:19:26.005Z,74237.69
2023-06-15T11:22:00.270Z,74262.16
2023-06-15T11:24:35.456Z,74292.72
2023-06-15T11:27:05.619Z,74292.72
2023-06-15T11:29:36.900Z,74258.06
2023-06-15T11:32:06.304Z,74286.59
2023-06-15T11:34:34.923Z,74288.63
2023-06-15T11:37:03.277Z,74288.63
2023-06-15T11:39:34.562Z,74315.13
2023-06-15T11:42:02.575Z,74357.91
2023-06-15T11:44:30.464Z,74366.06
2023-06-15T11:47:01.086Z,74368.09
2023-06-15T11:49:34.678Z,74378.28
2023-06-15T11:52:02.990Z,74421.09
2023-06-15T11:54:45.804Z,74437.41
2023-06-15T11:57:20.180Z,74453.69
2023-06-15T11:59:48.152Z,74496.50
2023-06-15T12:02:16.605Z,74549.47
2023-06-15T12:04:44.889Z,74598.38
2023-06-15T12:07:24.510Z,74614.69
2023-06-15T12:10:01.960Z,74614.69
2023-06-15T12:12:32.223Z,74602.47
2023-06-15T12:15:01.033Z,74567.81
2023-06-15T12:17:29.620Z,74508.72
2023-06-15T12:20:01.804Z,74504.63
2023-06-15T12:22:37.973Z,74520.94
2023-06-15T12:25:07.141Z,74520.94
2023-06-15T12:27:42.736Z,74541.31
2023-06-15T12:30:12.452Z,74567.81
2023-06-15T12:32:44.741Z,74604.50
2023-06-15T12:35:29.527Z,74614.69
2023-06-15T12:37:59.100Z,74608.56
2023-06-15T12:40:27.346Z,74602.47
2023-06-15T12:43:01.339Z,74590.22
2023-06-15T12:45:29.470Z,74612.66
2023-06-15T12:47:59.100Z,74612.66
2023-06-15T12:50:27.159Z,74618.75
2023-06-15T12:52:57.984Z,74635.06
2023-06-15T12:55:26.590Z,74618.75
2023-06-15T12:57:55.998Z,74606.53
2023-06-15T13:00:27.472Z,74527.06
2023-06-15T13:02:55.596Z,74394.59
2023-06-15T13:05:24.071Z,74325.31
2023-06-15T13:07:52.042Z,74284.56
2023-06-15T13:10:20.203Z,74243.81
2023-06-15T13:12:48.795Z,74239.72
2023-06-15T13:15:19.840Z,74272.34
2023-06-15T13:17:50.995Z,74345.69
2023-06-15T13:20:20.373Z,74394.59
2023-06-15T13:22:50.402Z,74410.91
2023-06-15T13:25:20.164Z,74443.50
2023-06-15T13:27:48.124Z,74472.03
2023-06-15T13:30:17.583Z,74467.97
2023-06-15T13:32:47.872Z,74502.59
2023-06-15T13:35:18.875Z,74537.25
2023-06-15T13:37:47.437Z,74557.63
2023-06-15T13:40:15.925Z,74549.47
2023-06-15T13:42:44.308Z,74553.56
2023-06-15T13:45:15.053Z,74565.78
2023-06-15T13:47:44.058Z,74535.22
2023-06-15T13:50:14.547Z,74520.94
2023-06-15T13:52:47.902Z,74539.28
2023-06-15T13:55:17.492Z,74551.50
2023-06-15T13:57:45.826Z,74549.47
2023-06-15T14:00:15.221Z,74541.31
2023-06-15T14:02:44.470Z,74561.69
2023-06-15T14:05:14.320Z,74557.63
2023-06-15T14:07:43.879Z,74565.78
2023-06-15T14:10:12.496Z,74553.56
2023-06-15T14:12:40.533Z,74539.28
2023-06-15T14:15:10.490Z,74510.75
2023-06-15T14:17:39.439Z,74484.25
2023-06-15T14:20:09.310Z,74472.03
2023-06-15T14:22:37.271Z,74449.63
2023-06-15T14:25:07.305Z,74357.91
2023-06-15T14:27:35.085Z,74247.88
2023-06-15T14:30:03.108Z,74209.16
2023-06-15T14:32:31.485Z,74188.78
2023-06-15T14:34:59.482Z,74146.00
2023-06-15T14:37:27.415Z,74207.13
2023-06-15T14:39:55.461Z,74254.00
2023-06-15T14:42:28.237Z,74266.22
2023-06-15T14:44:57.218Z,74268.25
2023-06-15T14:47:25.073Z,74309.00
2023-06-15T14:49:53.018Z,74313.09
2023-06-15T14:52:21.072Z,74325.31
2023-06-15T14:54:49.069Z,74317.16
2023-06-15T14:57:18.006Z,74296.78
2023-06-15T14:59:47.713Z,74274.38
2023-06-15T15:02:16.014Z,74223.44
2023-06-15T15:04:43.868Z,74166.38
2023-06-15T15:07:12.013Z,74160.25
2023-06-15T15:09:39.781Z,74170.44
2023-06-15T15:12:08.824Z,74141.94
2023-06-15T15:14:36.958Z,74086.91
2023-06-15T15:17:06.879Z,74084.88
2023-06-15T15:19:34.775Z,74093.03
2023-06-15T15:22:03.153Z,74088.94
2023-06-15T15:24:30.972Z,74115.44
2023-06-15T15:26:58.781Z,74088.94
2023-06-15T15:29:26.784Z,74093.03
2023-06-15T15:31:54.535Z,74072.66
2023-06-15T15:34:23.808Z,74080.78
2023-06-15T15:36:51.905Z,74093.03
2023-06-15T15:39:19.821Z,74119.50
2023-06-15T15:41:48.294Z,74113.41
2023-06-15T15:44:16.271Z,74078.75
2023-06-15T15:46:44.272Z,74084.88
2023-06-15T15:49:12.123Z,74011.53
2023-06-15T15:51:41.480Z,73995.22
2023-06-15T15:54:12.077Z,73958.53
2023-06-15T15:56:40.171Z,73913.72
2023-06-15T15:59:08.432Z,73946.31
2023-06-15T16:01:36.284Z,73909.66
2023-06-15T16:04:04.601Z,73903.53
2023-06-15T16:06:32.391Z,73934.09
2023-06-15T16:09:01.520Z,73944.28
2023-06-15T16:11:29.499Z,73950.41
2023-06-15T16:13:57.518Z,73972.81
2023-06-15T16:16:29.362Z,73999.28
2023-06-15T16:18:57.925Z,74015.59
2023-06-15T16:21:26.053Z,74007.44
2023-06-15T16:23:54.054Z,74003.38
2023-06-15T16:26:23.593Z,73983.00
2023-06-15T16:28:51.492Z,73942.25
2023-06-15T16:31:19.284Z,73950.41
2023-06-15T16:33:47.321Z,73899.44
2023-06-15T16:36:16.692Z,73905.56
2023-06-15T16:38:44.493Z,73905.56
2023-06-15T16:41:12.750Z,73901.50
2023-06-15T16:43:42.881Z,73946.31
2023-06-15T16:46:11.080Z,73985.03
2023-06-15T16:48:39.226Z,73978.91
2023-06-15T16:51:07.050Z,73974.84
2023-06-15T16:53:34.864Z,73991.16
2023-06-15T16:56:02.970Z,73968.72
2023-06-15T16:58:31.666Z,73944.28
2023-06-15T17:01:00.964Z,73964.66
2023-06-15T17:03:29.179Z,73970.78
2023-06-15T17:05:57.201Z,74003.38
2023-06-15T17:08:25.056Z,73983.00
2023-06-15T17:10:53.060Z,74035.97
2023-06-15T17:13:20.977Z,74080.78
2023-06-15T17:15:48.859Z,74105.25
2023-06-15T17:18:18.334Z,74111.34
2023-06-15T17:20:46.112Z,74103.22
2023-06-15T17:23:13.879Z,74129.69
2023-06-15T17:25:41.916Z,74143.97
2023-06-15T17:28:09.704Z,74129.69
2023-06-15T17:30:37.552Z,74129.69
2023-06-15T17:33:05.631Z,74137.84
2023-06-15T17:35:34.799Z,74125.63
2023-06-15T17:38:02.603Z,74113.41
2023-06-15T17:40:30.799Z,74119.50
2023-06-15T17:42:58.593Z,74129.69
2023-06-15T17:45:27.790Z,74125.63
2023-06-15T17:47:55.904Z,74135.81
2023-06-15T17:50:23.744Z,74158.22
2023-06-15T17:52:52.886Z,74154.16
2023-06-15T17:55:21.039Z,74158.22
2023-06-15T17:57:48.821Z,74152.13
2023-06-15T18:00:17.971Z,74174.53
2023-06-15T18:02:46.305Z,74190.81
2023-06-15T18:05:14.207Z,74223.44
2023-06-15T18:07:42.029Z,74254.00
2023-06-15T18:10:11.801Z,74282.53
2023-06-15T18:12:39.569Z,74292.72
2023-06-15T18:15:08.399Z,74309.00
2023-06-15T18:17:36.447Z,74329.38
2023-06-15T18:20:04.532Z,74343.66
2023-06-15T18:22:32.289Z,74353.84
2023-06-15T18:25:00.369Z,74370.16
2023-06-15T18:27:30.174Z,74386.44
2023-06-15T18:30:05.965Z,74384.41
2023-06-15T18:32:35.600Z,74398.69
2023-06-15T18:35:04.619Z,74410.91
2023-06-15T18:37:32.440Z,74414.97
2023-06-15T18:40:00.635Z,74425.16
2023-06-15T18:42:29.749Z,74443.50
2023-06-15T18:44:57.544Z,74459.81
2023-06-15T18:47:26.448Z,74470.00
2023-06-15T18:49:54.358Z,74476.13
2023-06-15T18:52:22.314Z,74492.41
2023-06-15T18:54:50.413Z,74508.72
2023-06-15T18:57:18.451Z,74529.09
2023-06-15T18:59:48.165Z,74545.41
2023-06-15T19:02:18.317Z,74555.59
2023-06-15T19:04:46.610Z,74618.75
2023-06-15T19:07:14.553Z,74677.88
2023-06-15T19:09:42.804Z,74696.19
2023-06-15T19:12:12.403Z,74714.53
2023-06-15T19:14:40.616Z,74741.03
2023-06-15T19:17:11.209Z,74761.41
2023-06-15T19:19:39.993Z,74773.66
2023-06-15T19:22:08.574Z,74785.88
2023-06-15T19:24:36.441Z,74808.28
2023-06-15T19:27:04.687Z,74830.72
2023-06-15T19:29:33.858Z,74863.31
2023-06-15T19:32:01.800Z,74883.69
2023-06-15T19:34:31.115Z,74889.81
2023-06-15T19:36:59.150Z,74902.03
2023-06-15T19:39:27.291Z,74920.38
2023-06-15T19:41:55.161Z,74932.63
2023-06-15T19:44:23.211Z,74936.69
2023-06-15T19:46:51.900Z,74936.69
2023-06-15T19:49:20.143Z,74959.13
2023-06-15T19:51:49.830Z,74973.38
2023-06-15T19:54:17.826Z,74973.38
2023-06-15T19:56:45.785Z,74957.06
2023-06-15T19:59:13.776Z,74940.78
2023-06-15T20:01:42.332Z,74924.47
2023-06-15T20:04:10.372Z,74908.16
2023-06-15T20:06:38.507Z,74897.97
2023-06-15T20:09:07.879Z,74897.97
2023-06-15T20:11:36.324Z,74873.50
2023-06-15T20:14:04.911Z,74887.78
2023-06-15T20:16:34.756Z,74889.81
2023-06-15T20:19:02.710Z,74867.41
2023-06-15T20:21:30.796Z,74844.97
2023-06-15T20:23:58.728Z,74838.88
2023-06-15T20:26:30.123Z,74842.94
2023-06-15T20:28:58.726Z,74830.72
2023-06-15T20:31:26.646Z,74832.75
2023-06-15T20:33:55.187Z,74838.88
2023-06-15T20:36:23.381Z,74834.78
2023-06-15T20:38:51.707Z,74842.94
2023-06-15T20:41:19.487Z,74844.97
2023-06-15T20:43:48.915Z,74851.09
2023-06-15T20:46:19.819Z,74859.25
2023-06-15T20:48:49.795Z,74869.44
2023-06-15T20:51:17.563Z,74873.50
2023-06-15T20:53:45.321Z,74883.69
2023-06-15T20:56:13.493Z,74908.16
2023-06-15T20:58:41.307Z,74908.16
2023-06-15T21:01:10.563Z,74906.13
2023-06-15T21:03:38.739Z,74908.16
2023-06-15T21:06:06.882Z,74924.47
2023-06-15T21:08:35.762Z,74930.56
2023-06-15T21:11:04.622Z,74912.22
2023-06-15T21:13:34.677Z,74924.47
2023-06-15T21:16:03.722Z,74928.53
2023-06-15T21:18:35.354Z,74944.84
2023-06-15T21:21:04.097Z,74936.69
2023-06-15T21:23:33.816Z,74950.97
2023-06-15T21:26:02.057Z,74977.47
2023-06-15T21:28:29.882Z,74985.59
2023-06-15T21:30:57.865Z,75010.06
2023-06-15T21:33:25.628Z,75024.34
2023-06-15T21:35:54.734Z,75026.38
2023-06-15T21:38:23.497Z,75042.69
2023-06-15T21:40:51.649Z,75056.94
2023-06-15T21:43:19.448Z,75071.22
2023-06-15T21:45:48.872Z,75079.38
2023-06-15T21:48:16.714Z,75083.44
2023-06-15T21:50:44.624Z,75083.44
2023-06-15T21:53:13.989Z,75099.75
2023-06-15T21:55:41.861Z,75097.72
2023-06-15T21:58:10.818Z,75099.75
2023-06-15T22:00:38.850Z,75105.84
2023-06-15T22:03:07.166Z,75111.97
2023-06-15T22:05:34.960Z,75116.06
2023-06-15T22:08:03.203Z,75120.13
2023-06-15T22:10:33.280Z,75128.28
2023-06-15T22:13:05.982Z,75132.34
2023-06-15T22:15:34.299Z,75138.47
2023-06-15T22:18:02.629Z,75136.44
2023-06-15T22:20:31.107Z,75148.66
2023-06-15T22:22:59.127Z,75160.88
2023-06-15T22:25:27.554Z,75162.94
2023-06-15T22:27:56.699Z,75158.84
2023-06-15T22:30:24.697Z,75164.97
2023-06-15T22:32:54.582Z,75177.19
2023-06-15T22:35:24.284Z,75175.16
2023-06-15T22:37:52.330Z,75175.16
2023-06-15T22:40:20.364Z,75175.16
2023-06-15T22:42:48.418Z,75183.31
2023-06-15T22:45:17.905Z,75175.16
2023-06-15T22:47:45.897Z,75193.50
2023-06-15T22:50:15.382Z,75201.66
2023-06-15T22:52:43.517Z,75201.66
2023-06-15T22:55:11.668Z,75213.88
2023-06-15T22:57:39.457Z,75213.88
2023-06-15T23:00:11.132Z,75224.06
2023-06-15T23:02:40.314Z,75244.47
2023-06-15T23:05:09.517Z,75252.63
2023-06-15T23:07:43.353Z,75266.88
2023-06-15T23:10:13.834Z,75277.06
2023-06-15T23:12:51.685Z,75297.47
2023-06-15T23:15:20.705Z,75305.59
2023-06-15T23:17:50.223Z,75305.59
2023-06-15T23:20:19.374Z,75311.72
2023-06-15T23:22:52.528Z,75307.66
2023-06-15T23:25:20.803Z,75309.69
2023-06-15T23:27:49.247Z,75307.66
2023-06-15T23:30:17.589Z,75303.56
2023-06-15T23:32:45.826Z,75301.53
2023-06-15T23:35:15.181Z,75293.38
2023-06-15T23:37:43.262Z,75291.34
2023-06-15T23:40:11.986Z,75291.34
2023-06-15T23:42:39.737Z,75299.50
2023-06-15T23:45:08.751Z,75293.38
2023-06-15T23:47:36.516Z,75291.34
2023-06-15T23:50:04.749Z,75287.25
2023-06-15T23:52:34.133Z,75287.25
2023-06-15T23:55:02.072Z,75291.34
2023-06-15T23:57:29.832Z,75291.34
2023-06-15T23:59:57.846Z,75305.59
